Time;durP1;ratioP1;P1;durP2;ratioP2;P2;SDS_P1;SDS_P2;PMS_P1;PMS_P2;Temp;Humidity;BMP_temperature;BMP_pressure;BME280_temperature;BME280_humidity;BME280_pressure;Samples;Min_cycle;Max_cycle;Signal;HPM_P1;HPM_P2
2022/01/06 00:01:44;;;;;;;;;;;3.00;92.70;;;;;;5063165;28;19916;-66
2022/01/06 00:04:10;;;;;;;;;;;3.00;92.80;;;;;;5061913;28;19928;-67
2022/01/06 00:06:39;;;;;;;;;;;3.00;92.90;;;;;;5062716;28;19908;-68
2022/01/06 00:09:06;;;;;;;;;;;3.00;92.90;;;;;;5062337;28;19913;-67
2022/01/06 00:11:32;;;;;;;;;;;3.10;92.80;;;;;;5062511;28;20200;-68
2022/01/06 00:24:46;;;;;;;;;;;3.10;92.80;;;;;;5062618;28;19943;-65
2022/01/06 00:27:12;;;;;;;;;;;3.10;92.80;;;;;;5061794;28;19912;-65
2022/01/06 00:29:38;;;;;;;;;;;3.10;92.90;;;;;;5062669;28;19987;-66
2022/01/06 00:32:04;;;;;;;;;;;3.10;93.00;;;;;;5061912;28;20262;-66
2022/01/06 00:34:29;;;;;;;;;;;3.10;92.90;;;;;;5063691;28;19916;-66
2022/01/06 00:36:55;;;;;;;;;;;3.10;92.80;;;;;;5065867;28;19909;-67
2022/01/06 00:39:26;;;;;;;;;;;3.10;92.80;;;;;;5066151;28;19943;-66
2022/01/06 00:41:55;;;;;;;;;;;3.10;92.80;;;;;;5064217;28;20167;-66
2022/01/06 00:44:21;;;;;;;;;;;3.10;92.90;;;;;;5065531;28;19909;-66
2022/01/06 00:46:46;;;;;;;;;;;3.10;92.90;;;;;;5065386;28;20107;-67
2022/01/06 00:49:13;;;;;;;;;;;3.10;93.00;;;;;;5065640;28;20216;-66
2022/01/06 00:51:38;;;;;;;;;;;3.00;93.10;;;;;;5065536;28;19916;-66
2022/01/06 00:54:04;;;;;;;;;;;3.10;93.10;;;;;;5065789;28;19908;-66
2022/01/06 00:56:30;;;;;;;;;;;3.10;93.00;;;;;;5065599;28;19909;-66
2022/01/06 00:58:55;;;;;;;;;;;3.10;93.10;;;;;;5065049;28;19943;-66
2022/01/06 01:01:21;;;;;;;;;;;3.10;93.20;;;;;;5065945;28;19916;-68
2022/01/06 01:03:47;;;;;;;;;;;3.00;93.30;;;;;;5065436;28;19909;-66
2022/01/06 01:06:12;;;;;;;;;;;3.10;93.40;;;;;;5065368;28;19909;-66
2022/01/06 01:08:38;;;;;;;;;;;3.10;93.40;;;;;;5065849;28;20262;-66
2022/01/06 01:11:04;;;;;;;;;;;3.10;93.60;;;;;;5065018;28;19909;-66
2022/01/06 01:13:32;;;;;;;;;;;3.10;93.70;;;;;;5065856;28;19980;-67
2022/01/06 01:16:07;;;;;;;;;;;3.10;93.70;;;;;;5064908;28;19915;-67
2022/01/06 01:18:32;;;;;;;;;;;3.00;93.90;;;;;;5065574;28;19966;-66
2022/01/06 01:20:58;;;;;;;;;;;3.00;94.20;;;;;;5063949;28;20227;-66
2022/01/06 01:23:24;;;;;;;;;;;3.00;94.60;;;;;;5065322;28;19912;-67
2022/01/06 01:25:50;;;;;;;;;;;2.90;94.80;;;;;;5065401;28;20196;-66
2022/01/06 01:28:15;;;;;;;;;;;2.90;94.90;;;;;;5064499;28;19946;-66
2022/01/06 01:31:00;;;;;;;;;;;2.80;95.20;;;;;;5065496;28;20111;-66
2022/01/06 01:33:26;;;;;;;;;;;2.80;95.30;;;;;;5064705;28;20116;-66
2022/01/06 01:35:51;;;;;;;;;;;2.80;95.40;;;;;;5065088;28;19916;-66
2022/01/06 01:38:17;;;;;;;;;;;2.90;95.20;;;;;;5063715;28;19983;-67
2022/01/06 01:40:43;;;;;;;;;;;2.80;95.20;;;;;;5064586;28;19924;-67
2022/01/06 01:43:08;;;;;;;;;;;2.80;95.20;;;;;;5064047;28;19909;-68
2022/01/06 01:45:34;;;;;;;;;;;2.90;95.20;;;;;;5062009;28;19909;-66
2022/01/06 01:48:05;;;;;;;;;;;2.90;95.10;;;;;;5064820;28;19909;-66
2022/01/06 01:50:30;;;;;;;;;;;2.90;95.00;;;;;;5064518;28;19951;-66
2022/01/06 01:52:57;;;;;;;;;;;2.90;95.20;;;;;;5065161;28;20280;-66
2022/01/06 01:55:24;;;;;;;;;;;2.80;95.30;;;;;;5062653;28;19987;-66
2022/01/06 01:57:50;;;;;;;;;;;2.90;95.20;;;;;;5064866;28;19916;-66
2022/01/06 02:00:16;;;;;;;;;;;2.90;95.10;;;;;;5063259;28;19909;-66
2022/01/06 02:02:42;;;;;;;;;;;2.90;95.10;;;;;;5063818;28;19909;-67
2022/01/06 02:05:08;;;;;;;;;;;2.90;94.90;;;;;;5063974;28;19982;-67
2022/01/06 02:07:34;;;;;;;;;;;2.90;95.00;;;;;;5064424;28;19916;-66
2022/01/06 02:10:01;;;;;;;;;;;2.90;95.00;;;;;;5064074;28;20129;-66
2022/01/06 02:12:29;;;;;;;;;;;2.90;95.20;;;;;;5064417;28;19916;-66
2022/01/06 02:14:55;;;;;;;;;;;2.90;95.30;;;;;;5063876;28;19909;-66
2022/01/06 02:17:21;;;;;;;;;;;2.90;95.40;;;;;;5064242;28;19920;-66
2022/01/06 02:20:20;;;;;;;;;;;2.90;95.60;;;;;;5063974;28;19915;-66
2022/01/06 02:22:45;;;;;;;;;;;2.80;95.80;;;;;;5041534;28;20163;-66
2022/01/06 02:25:15;;;;;;;;;;;2.80;96.00;;;;;;5063720;28;19971;-66
2022/01/06 02:27:40;;;;;;;;;;;2.90;96.10;;;;;;5064004;28;19946;-67
2022/01/06 02:30:07;;;;;;;;;;;2.80;96.40;;;;;;5063706;28;19920;-67
2022/01/06 02:32:33;;;;;;;;;;;2.80;96.50;;;;;;5064272;28;19967;-66
2022/01/06 02:35:11;;;;;;;;;;;2.80;96.70;;;;;;5063119;28;19968;-66
2022/01/06 02:37:37;;;;;;;;;;;2.70;96.80;;;;;;5064283;28;20139;-66
2022/01/06 02:40:13;;;;;;;;;;;2.70;97.20;;;;;;5064196;28;19916;-66
2022/01/06 02:42:44;;;;;;;;;;;2.70;96.90;;;;;;5063734;28;19944;-66
2022/01/06 02:45:10;;;;;;;;;;;2.70;96.90;;;;;;5063690;28;19915;-67
2022/01/06 02:47:36;;;;;;;;;;;2.70;96.90;;;;;;5063138;28;19915;-66
2022/01/06 02:50:03;;;;;;;;;;;2.70;97.10;;;;;;5062847;28;19913;-66
2022/01/06 02:52:29;;;;;;;;;;;2.60;97.30;;;;;;5064014;28;20115;-66
2022/01/06 02:54:55;;;;;;;;;;;2.60;97.30;;;;;;5062710;28;19909;-67
2022/01/06 02:57:20;;;;;;;;;;;2.50;97.40;;;;;;5063511;28;19971;-67
2022/01/06 02:59:46;;;;;;;;;;;2.50;97.40;;;;;;5062885;28;19916;-66
2022/01/06 03:02:12;;;;;;;;;;;2.50;97.50;;;;;;5063739;28;20203;-66
2022/01/06 03:04:38;;;;;;;;;;;2.40;97.50;;;;;;5062839;28;19909;-66
2022/01/06 03:07:03;;;;;;;;;;;2.30;97.70;;;;;;5063179;28;19908;-66
2022/01/06 03:09:38;;;;;;;;;;;2.30;97.70;;;;;;5063306;28;19913;-67
2022/01/06 03:12:06;;;;;;;;;;;2.30;97.60;;;;;;5061525;28;19939;-67
2022/01/06 03:14:32;;;;;;;;;;;2.30;97.60;;;;;;5062890;28;19920;-66
2022/01/06 03:16:58;;;;;;;;;;;2.30;97.70;;;;;;5061472;28;19984;-66
2022/01/06 03:19:24;;;;;;;;;;;2.30;97.80;;;;;;5063078;28;19916;-67
2022/01/06 03:21:49;;;;;;;;;;;2.30;97.80;;;;;;5063064;28;19909;-67
2022/01/06 03:24:16;;;;;;;;;;;2.40;97.70;;;;;;5062764;28;19909;-66
2022/01/06 03:26:42;;;;;;;;;;;2.40;97.40;;;;;;5062274;28;19915;-66
2022/01/06 03:29:08;;;;;;;;;;;2.40;97.50;;;;;;5062626;28;19935;-66
2022/01/06 03:31:33;;;;;;;;;;;2.40;97.60;;;;;;5063107;28;20341;-65
2022/01/06 03:33:59;;;;;;;;;;;2.40;97.40;;;;;;5062538;28;19915;-66
2022/01/06 03:36:25;;;;;;;;;;;2.50;97.20;;;;;;5062987;28;19916;-66
2022/01/06 03:38:50;;;;;;;;;;;2.50;96.80;;;;;;5063160;28;19947;-66
2022/01/06 03:41:16;;;;;;;;;;;2.50;96.80;;;;;;5062557;28;19955;-67
2022/01/06 03:43:42;;;;;;;;;;;2.50;96.90;;;;;;5063009;28;19935;-66
2022/01/06 03:46:07;;;;;;;;;;;2.50;96.80;;;;;;5062514;28;19916;-66
2022/01/06 03:48:33;;;;;;;;;;;2.40;97.00;;;;;;5062923;28;20146;-66
2022/01/06 03:50:59;;;;;;;;;;;2.40;97.00;;;;;;5063194;28;19923;-66
2022/01/06 03:53:24;;;;;;;;;;;2.40;97.00;;;;;;5062883;28;20220;-66
2022/01/06 03:55:50;;;;;;;;;;;2.40;96.90;;;;;;5062091;28;19982;-66
2022/01/06 03:58:16;;;;;;;;;;;2.40;97.00;;;;;;5062854;28;19909;-66
2022/01/06 04:00:41;;;;;;;;;;;2.40;97.10;;;;;;5062604;28;19919;-66
2022/01/06 04:03:07;;;;;;;;;;;2.40;97.10;;;;;;5061921;28;19909;-66
2022/01/06 04:05:33;;;;;;;;;;;2.50;97.20;;;;;;5062589;28;20230;-65
2022/01/06 04:08:00;;;;;;;;;;;2.50;97.20;;;;;;5062136;28;19913;-65
2022/01/06 04:10:25;;;;;;;;;;;2.50;97.40;;;;;;5065626;28;19920;-67
2022/01/06 04:12:51;;;;;;;;;;;2.50;97.40;;;;;;5066790;28;19909;-67
2022/01/06 04:15:17;;;;;;;;;;;2.40;97.50;;;;;;5065986;28;20227;-66
2022/01/06 04:17:43;;;;;;;;;;;2.40;97.50;;;;;;5066693;28;19920;-66
2022/01/06 04:20:09;;;;;;;;;;;2.40;97.40;;;;;;5066034;28;20022;-66
2022/01/06 04:22:35;;;;;;;;;;;2.40;97.50;;;;;;5067036;28;20085;-66
2022/01/06 04:25:01;;;;;;;;;;;2.30;97.50;;;;;;5065638;28;19917;-66
2022/01/06 04:27:27;;;;;;;;;;;2.20;97.70;;;;;;5066548;28;19971;-66
2022/01/06 04:29:52;;;;;;;;;;;2.30;97.50;;;;;;5066597;28;19920;-66
2022/01/06 04:32:18;;;;;;;;;;;2.20;97.60;;;;;;5065970;28;20084;-66
2022/01/06 04:34:44;;;;;;;;;;;2.30;97.60;;;;;;5065969;28;19909;-67
2022/01/06 04:37:09;;;;;;;;;;;2.20;97.70;;;;;;5066180;28;20235;-66
2022/01/06 04:39:35;;;;;;;;;;;2.10;97.80;;;;;;5066222;28;19915;-66
2022/01/06 04:42:01;;;;;;;;;;;2.20;97.70;;;;;;5065068;28;19916;-66
2022/01/06 04:44:26;;;;;;;;;;;2.20;97.70;;;;;;5065497;28;20204;-66
2022/01/06 04:46:52;;;;;;;;;;;2.10;97.80;;;;;;5066053;28;19908;-67
2022/01/06 04:49:18;;;;;;;;;;;2.10;97.90;;;;;;5066256;28;19917;-66
2022/01/06 04:51:43;;;;;;;;;;;2.00;98.10;;;;;;5066270;28;20164;-66
2022/01/06 04:54:09;;;;;;;;;;;2.00;98.10;;;;;;5065164;28;19913;-66
2022/01/06 04:56:37;;;;;;;;;;;2.00;97.90;;;;;;5065945;28;19909;-67
2022/01/06 04:59:08;;;;;;;;;;;2.00;97.80;;;;;;5066076;28;20093;-66
2022/01/06 05:01:33;;;;;;;;;;;1.90;98.00;;;;;;5065537;28;19909;-66
2022/01/06 05:03:59;;;;;;;;;;;1.80;97.90;;;;;;5065735;28;20196;-66
2022/01/06 05:06:25;;;;;;;;;;;1.80;98.00;;;;;;5065726;28;20107;-67
2022/01/06 05:08:51;;;;;;;;;;;1.70;98.20;;;;;;5065781;28;19913;-67
2022/01/06 05:11:16;;;;;;;;;;;1.70;98.10;;;;;;5065680;28;19909;-67
2022/01/06 05:13:42;;;;;;;;;;;1.70;98.20;;;;;;5065844;28;19916;-66
2022/01/06 05:16:08;;;;;;;;;;;1.70;98.20;;;;;;5064768;28;19976;-66
2022/01/06 05:18:35;;;;;;;;;;;1.60;98.40;;;;;;5065769;28;19909;-66
2022/01/06 05:21:01;;;;;;;;;;;1.60;98.50;;;;;;5065759;28;19947;-66
2022/01/06 05:23:27;;;;;;;;;;;1.50;98.50;;;;;;5064799;28;19909;-66
2022/01/06 05:25:54;;;;;;;;;;;1.50;98.40;;;;;;5065316;28;19912;-66
2022/01/06 05:28:20;;;;;;;;;;;1.50;98.40;;;;;;5084729;23;20135;-64
2022/01/06 05:30:46;;;;;;;;;;;1.50;98.40;;;;;;5071703;28;20010;-66
2022/01/06 05:33:13;;;;;;;;;;;1.50;98.30;;;;;;5062878;28;19993;-65
2022/01/06 05:35:38;;;;;;;;;;;1.50;98.30;;;;;;5065027;28;20207;-65
2022/01/06 05:38:04;;;;;;;;;;;1.40;98.30;;;;;;5065278;28;19916;-65
2022/01/06 05:40:30;;;;;;;;;;;1.30;98.30;;;;;;5065189;28;19913;-64
2022/01/06 05:42:57;;;;;;;;;;;1.30;98.30;;;;;;5065096;28;19932;-65
2022/01/06 05:45:23;;;;;;;;;;;1.30;98.30;;;;;;5064722;28;19940;-65
2022/01/06 05:47:49;;;;;;;;;;;1.30;98.40;;;;;;5065205;28;19972;-65
2022/01/06 05:50:14;;;;;;;;;;;1.20;98.40;;;;;;5064561;28;20124;-65
2022/01/06 05:52:40;;;;;;;;;;;1.20;98.60;;;;;;5065084;28;19916;-65
2022/01/06 05:55:06;;;;;;;;;;;1.20;98.60;;;;;;5064725;28;19909;-66
2022/01/06 05:57:32;;;;;;;;;;;1.10;98.70;;;;;;5065243;28;20053;-66
2022/01/06 05:59:58;;;;;;;;;;;1.10;98.80;;;;;;5064172;28;20334;-66
2022/01/06 06:02:23;;;;;;;;;;;1.20;98.90;;;;;;5065021;28;19916;-65
2022/01/06 06:04:49;;;;;;;;;;;1.20;98.90;;;;;;5063788;28;19946;-65
2022/01/06 06:07:17;;;;;;;;;;;1.40;98.90;;;;;;5063837;28;19908;-66
2022/01/06 06:09:43;;;;;;;;;;;1.30;99.00;;;;;;5064732;28;19959;-65
2022/01/06 06:12:09;;;;;;;;;;;1.40;99.00;;;;;;5063256;28;19908;-65
2022/01/06 06:14:35;;;;;;;;;;;1.50;99.00;;;;;;5064907;28;20142;-66
2022/01/06 06:17:00;;;;;;;;;;;1.60;98.90;;;;;;5064054;28;19947;-65
2022/01/06 06:19:26;;;;;;;;;;;1.60;99.00;;;;;;5064609;28;20172;-65
2022/01/06 06:21:52;;;;;;;;;;;1.70;98.70;;;;;;5064655;28;19909;-65
2022/01/06 06:24:20;;;;;;;;;;;1.80;98.60;;;;;;5064274;28;20204;-65
2022/01/06 06:26:46;;;;;;;;;;;1.90;98.30;;;;;;5063669;28;19916;-65
2022/01/06 06:29:11;;;;;;;;;;;2.00;98.20;;;;;;5064184;28;19917;-64
2022/01/06 06:31:37;;;;;;;;;;;2.00;98.30;;;;;;5063980;28;19951;-64
2022/01/06 06:34:02;;;;;;;;;;;2.00;98.30;;;;;;5063601;28;19915;-66
2022/01/06 06:36:28;;;;;;;;;;;2.10;98.10;;;;;;5064037;28;19931;-65
2022/01/06 06:38:54;;;;;;;;;;;2.20;98.00;;;;;;5064088;28;20136;-66
2022/01/06 06:41:19;;;;;;;;;;;2.20;97.90;;;;;;5063570;28;20007;-66
2022/01/06 06:43:45;;;;;;;;;;;2.20;97.80;;;;;;5063933;28;19916;-66
2022/01/06 06:46:11;;;;;;;;;;;2.20;97.80;;;;;;5063770;28;19975;-66
2022/01/06 06:48:36;;;;;;;;;;;2.20;97.90;;;;;;5063787;28;20222;-67
2022/01/06 06:51:02;;;;;;;;;;;2.30;97.80;;;;;;5062732;28;19966;-67
2022/01/06 06:53:29;;;;;;;;;;;2.30;97.50;;;;;;5079425;28;19916;-67
2022/01/06 06:55:54;;;;;;;;;;;2.30;97.40;;;;;;5082471;28;19947;-68
2022/01/06 06:58:20;;;;;;;;;;;2.30;97.30;;;;;;5083669;28;19909;-68
2022/01/06 07:00:46;;;;;;;;;;;2.40;97.50;;;;;;5083887;28;19971;-67
2022/01/06 07:03:11;;;;;;;;;;;2.40;97.40;;;;;;5082426;28;19950;-67
2022/01/06 07:05:37;;;;;;;;;;;2.40;97.20;;;;;;5065558;28;19979;-67
2022/01/06 07:08:03;;;;;;;;;;;2.40;97.20;;;;;;5063340;28;19924;-68
2022/01/06 07:10:28;;;;;;;;;;;2.40;97.20;;;;;;5063524;28;19912;-68
2022/01/06 07:12:54;;;;;;;;;;;2.50;97.30;;;;;;5063514;28;19908;-68
2022/01/06 07:15:20;;;;;;;;;;;2.50;97.20;;;;;;5063116;28;20072;-68
2022/01/06 07:17:46;;;;;;;;;;;2.50;97.10;;;;;;5063340;28;19975;-67
2022/01/06 07:20:11;;;;;;;;;;;2.50;97.10;;;;;;5063089;28;20149;-68
2022/01/06 07:22:37;;;;;;;;;;;2.50;97.20;;;;;;5063215;28;19916;-68
2022/01/06 07:25:04;;;;;;;;;;;2.50;96.80;;;;;;5062552;28;19920;-68
2022/01/06 07:27:30;;;;;;;;;;;2.50;96.80;;;;;;5061595;28;20199;-68
2022/01/06 07:29:55;;;;;;;;;;;2.60;97.00;;;;;;5062256;28;19916;-68
2022/01/06 07:32:21;;;;;;;;;;;2.60;96.80;;;;;;5063144;28;19909;-68
2022/01/06 07:34:47;;;;;;;;;;;2.60;97.00;;;;;;5062226;28;19960;-67
2022/01/06 07:37:12;;;;;;;;;;;2.60;97.00;;;;;;5062967;28;19917;-68
2022/01/06 07:39:38;;;;;;;;;;;2.60;97.00;;;;;;5062225;28;19915;-67
2022/01/06 07:42:04;;;;;;;;;;;2.60;96.90;;;;;;5061442;28;19909;-67
2022/01/06 07:44:30;;;;;;;;;;;2.60;96.80;;;;;;5061766;28;19909;-67
2022/01/06 07:46:56;;;;;;;;;;;2.60;96.90;;;;;;5062225;28;19908;-68
2022/01/06 07:49:21;;;;;;;;;;;2.60;97.00;;;;;;5062998;28;20108;-67
2022/01/06 07:51:47;;;;;;;;;;;2.60;96.70;;;;;;5061414;28;20014;-67
2022/01/06 07:54:13;;;;;;;;;;;2.70;96.60;;;;;;5062037;28;19923;-67
2022/01/06 07:56:38;;;;;;;;;;;2.70;96.80;;;;;;5062800;28;19916;-67
2022/01/06 07:59:04;;;;;;;;;;;2.70;96.40;;;;;;5062396;28;20112;-68
2022/01/06 08:01:30;;;;;;;;;;;2.70;96.60;;;;;;5062214;28;19909;-68
2022/01/06 08:03:55;;;;;;;;;;;2.80;96.60;;;;;;5062757;28;19915;-67
2022/01/06 08:06:21;;;;;;;;;;;2.80;96.50;;;;;;5061432;28;19944;-67
2022/01/06 08:08:47;;;;;;;;;;;2.70;96.50;;;;;;5060337;28;19943;-67
2022/01/06 08:11:12;;;;;;;;;;;2.80;96.60;;;;;;5062708;28;20111;-67
2022/01/06 08:13:38;;;;;;;;;;;2.80;96.60;;;;;;5062720;28;19909;-67
2022/01/06 08:16:04;;;;;;;;;;;2.80;96.60;;;;;;5061919;28;19913;-67
2022/01/06 08:18:30;;;;;;;;;;;2.90;96.40;;;;;;5061558;28;19936;-68
2022/01/06 08:20:55;;;;;;;;;;;2.90;96.30;;;;;;5062409;28;19909;-67
2022/01/06 08:23:21;;;;;;;;;;;2.90;96.50;;;;;;5062632;28;19908;-67
2022/01/06 08:25:47;;;;;;;;;;;2.90;96.40;;;;;;5062346;28;19976;-67
2022/01/06 08:28:13;;;;;;;;;;;3.00;96.20;;;;;;5062378;28;19917;-67
2022/01/06 08:30:38;;;;;;;;;;;3.00;96.30;;;;;;5061981;28;19951;-68
2022/01/06 08:33:04;;;;;;;;;;;3.00;96.40;;;;;;5062534;28;19909;-67
2022/01/06 08:35:30;;;;;;;;;;;3.00;96.20;;;;;;5061047;28;20131;-67
2022/01/06 08:37:56;;;;;;;;;;;3.00;96.10;;;;;;5062445;28;19908;-67
2022/01/06 08:40:21;;;;;;;;;;;3.00;96.20;;;;;;5062206;28;20119;-67
2022/01/06 08:42:48;;;;;;;;;;;3.10;95.90;;;;;;5062462;28;19909;-67
2022/01/06 08:45:13;;;;;;;;;;;3.00;95.90;;;;;;5062085;28;19915;-67
2022/01/06 08:47:39;;;;;;;;;;;3.10;95.90;;;;;;5062332;28;19909;-67
2022/01/06 08:50:05;;;;;;;;;;;3.00;96.00;;;;;;5061486;28;19976;-67
2022/01/06 08:52:33;;;;;;;;;;;3.10;95.90;;;;;;5062435;28;19916;-67
2022/01/06 08:54:59;;;;;;;;;;;3.10;95.70;;;;;;5062431;28;20353;-67
2022/01/06 08:57:25;;;;;;;;;;;3.10;95.70;;;;;;5066113;28;19909;-67
2022/01/06 08:59:51;;;;;;;;;;;3.10;95.70;;;;;;5065277;28;19971;-67
2022/01/06 09:02:17;;;;;;;;;;;3.10;95.80;;;;;;5066025;28;19916;-67
2022/01/06 09:04:42;;;;;;;;;;;3.10;95.60;;;;;;5065578;28;20258;-67
2022/01/06 09:07:08;;;;;;;;;;;3.20;95.80;;;;;;5064873;28;19913;-67
2022/01/06 09:09:34;;;;;;;;;;;3.20;95.70;;;;;;5064554;28;19932;-67
2022/01/06 09:11:59;;;;;;;;;;;3.20;95.80;;;;;;5064986;28;20253;-67
2022/01/06 09:14:25;;;;;;;;;;;3.20;95.70;;;;;;5065596;28;19995;-67
2022/01/06 09:16:53;;;;;;;;;;;3.20;95.60;;;;;;5065857;28;19909;-67
2022/01/06 09:19:18;;;;;;;;;;;3.20;95.50;;;;;;5065647;28;20281;-67
2022/01/06 09:21:44;;;;;;;;;;;3.20;95.60;;;;;;5065851;28;19909;-67
2022/01/06 09:24:10;;;;;;;;;;;3.30;95.40;;;;;;5050397;28;19924;-67
2022/01/06 09:26:36;;;;;;;;;;;3.30;95.40;;;;;;5045220;28;20115;-67
2022/01/06 09:29:03;;;;;;;;;;;3.30;95.20;;;;;;5045226;28;19917;-67
2022/01/06 09:31:29;;;;;;;;;;;3.30;95.20;;;;;;5045493;28;19955;-67
2022/01/06 09:33:55;;;;;;;;;;;3.40;94.90;;;;;;5045369;28;19909;-68
2022/01/06 09:36:20;;;;;;;;;;;3.40;94.80;;;;;;5045350;28;19909;-71
2022/01/06 09:38:46;;;;;;;;;;;3.50;94.70;;;;;;5061030;28;19915;-70
2022/01/06 09:41:12;;;;;;;;;;;3.60;94.80;;;;;;5065069;28;19916;-70
2022/01/06 09:43:37;;;;;;;;;;;3.50;94.30;;;;;;5064542;28;19909;-68
2022/01/06 09:46:05;;;;;;;;;;;3.50;94.30;;;;;;5063863;28;19909;-71
2022/01/06 09:48:31;;;;;;;;;;;3.50;94.10;;;;;;5046816;28;19947;-71
2022/01/06 09:50:57;;;;;;;;;;;3.50;94.40;;;;;;5047259;28;19913;-70
2022/01/06 09:53:23;;;;;;;;;;;3.50;94.50;;;;;;5062617;28;19909;-74
2022/01/06 09:55:49;;;;;;;;;;;3.50;94.30;;;;;;5043331;28;19909;-69
2022/01/06 09:58:15;;;;;;;;;;;3.70;94.30;;;;;;5044726;28;19909;-68
2022/01/06 10:00:40;;;;;;;;;;;3.80;93.80;;;;;;5054915;28;19954;-69
2022/01/06 10:03:06;;;;;;;;;;;3.80;93.80;;;;;;5064487;28;19908;-69
2022/01/06 10:05:44;;;;;;;;;;;3.80;93.40;;;;;;5061773;28;19955;-68
2022/01/06 10:08:10;;;;;;;;;;;3.80;93.30;;;;;;5063327;28;20196;-70
2022/01/06 10:10:36;;;;;;;;;;;3.90;93.20;;;;;;5045631;28;19994;-71
2022/01/06 10:13:07;;;;;;;;;;;4.10;92.90;;;;;;5062507;28;19909;-71
2022/01/06 10:15:34;;;;;;;;;;;4.20;92.70;;;;;;5063378;28;19909;-72
2022/01/06 10:18:14;;;;;;;;;;;4.20;92.30;;;;;;5043064;28;19940;-72
2022/01/06 10:20:40;;;;;;;;;;;4.30;92.30;;;;;;5058770;28;19909;-72
2022/01/06 10:23:11;;;;;;;;;;;4.20;91.80;;;;;;5059018;28;19916;-72
2022/01/06 10:25:38;;;;;;;;;;;4.30;91.60;;;;;;5062688;28;19951;-72
2022/01/06 10:28:35;;;;;;;;;;;4.70;91.00;;;;;;5061927;28;19909;-72
2022/01/06 10:31:05;;;;;;;;;;;5.00;90.10;;;;;;5047072;28;20107;-72
2022/01/06 10:33:36;;;;;;;;;;;5.60;88.00;;;;;;5045932;28;19984;-71
2022/01/06 10:36:08;;;;;;;;;;;5.50;85.50;;;;;;5063191;28;19909;-72
2022/01/06 10:38:34;;;;;;;;;;;5.50;87.00;;;;;;5062611;28;19909;-72
2022/01/06 10:41:14;;;;;;;;;;;5.60;86.00;;;;;;5046659;28;19909;-73
2022/01/06 10:43:40;;;;;;;;;;;6.00;84.00;;;;;;5062682;28;19909;-73
2022/01/06 10:46:07;;;;;;;;;;;6.60;81.10;;;;;;5063720;28;19915;-69
2022/01/06 10:48:33;;;;;;;;;;;7.60;76.00;;;;;;5063293;28;19944;-69
2022/01/06 10:51:00;;;;;;;;;;;8.50;69.30;;;;;;5062832;28;19963;-69
2022/01/06 10:53:26;;;;;;;;;;;8.50;67.00;;;;;;5061196;28;19916;-70
2022/01/06 10:55:51;;;;;;;;;;;9.30;61.60;;;;;;5045634;28;19917;-70
2022/01/06 10:58:19;;;;;;;;;;;10.50;59.00;;;;;;5063327;28;19916;-74
2022/01/06 11:01:00;;;;;;;;;;;11.70;54.70;;;;;;5045570;28;19951;-74
2022/01/06 11:03:33;;;;;;;;;;;12.60;50.60;;;;;;5063141;28;19976;-74
2022/01/06 11:05:59;;;;;;;;;;;12.90;47.90;;;;;;5075163;28;19976;-74
2022/01/06 11:08:27;;;;;;;;;;;13.20;47.50;;;;;;5068964;28;19917;-75
2022/01/06 11:11:16;;;;;;;;;;;13.20;47.30;;;;;;5063378;28;19980;-73
2022/01/06 11:13:44;;;;;;;;;;;12.50;48.60;;;;;;5063607;28;19954;-71
2022/01/06 11:16:13;;;;;;;;;;;11.10;51.40;;;;;;5062834;28;20202;-73
2022/01/06 11:18:41;;;;;;;;;;;9.80;55.40;;;;;;5062738;28;20022;-72
2022/01/06 11:21:07;;;;;;;;;;;9.00;58.60;;;;;;5061597;28;20257;-71
2022/01/06 11:23:33;;;;;;;;;;;8.00;62.50;;;;;;5060084;28;19913;-71
2022/01/06 11:26:06;;;;;;;;;;;7.50;65.60;;;;;;5063316;28;19936;-70
2022/01/06 11:28:32;;;;;;;;;;;7.30;67.30;;;;;;5062317;28;19919;-70
2022/01/06 11:31:11;;;;;;;;;;;6.90;69.00;;;;;;5089774;23;20192;-66
2022/01/06 11:33:41;;;;;;;;;;;6.50;71.70;;;;;;5076119;28;19912;-68
2022/01/06 11:36:22;;;;;;;;;;;6.30;73.30;;;;;;5062610;28;19937;-70
2022/01/06 11:38:49;;;;;;;;;;;6.00;74.90;;;;;;5060632;28;20214;-67
2022/01/06 11:41:16;;;;;;;;;;;5.80;77.20;;;;;;5062569;28;19975;-70
2022/01/06 11:43:43;;;;;;;;;;;5.60;77.90;;;;;;5061637;28;19908;-69
2022/01/06 11:46:09;;;;;;;;;;;5.50;79.30;;;;;;5042191;28;19932;-70
2022/01/06 11:48:55;;;;;;;;;;;5.30;79.90;;;;;;5041082;28;20208;-69
2022/01/06 11:51:31;;;;;;;;;;;5.20;80.90;;;;;;5061935;28;19913;-70
2022/01/06 11:53:57;;;;;;;;;;;5.20;81.70;;;;;;5060728;28;19915;-68
2022/01/06 11:56:23;;;;;;;;;;;5.20;81.10;;;;;;5061597;28;20235;-69
2022/01/06 11:59:04;;;;;;;;;;;5.60;78.20;;;;;;5063057;28;20107;-69
2022/01/06 12:01:47;;;;;;;;;;;5.90;76.30;;;;;;5061894;28;19909;-69
2022/01/06 12:04:14;;;;;;;;;;;5.70;75.60;;;;;;5061316;28;19909;-69
2022/01/06 12:06:41;;;;;;;;;;;5.50;77.40;;;;;;5061718;28;19908;-69
2022/01/06 12:09:17;;;;;;;;;;;5.30;78.50;;;;;;5062561;28;19913;-73
2022/01/06 12:11:43;;;;;;;;;;;5.20;78.90;;;;;;5044714;28;20231;-73
2022/01/06 12:14:09;;;;;;;;;;;5.20;79.70;;;;;;5061572;28;19909;-73
2022/01/06 12:16:36;;;;;;;;;;;4.90;80.90;;;;;;5061952;28;19909;-75
2022/01/06 12:19:25;;;;;;;;;;;4.70;83.10;;;;;;5061602;28;19909;-69
2022/01/06 12:21:51;;;;;;;;;;;4.60;84.80;;;;;;5061781;28;19940;-64
2022/01/06 12:24:16;;;;;;;;;;;4.50;84.80;;;;;;5060384;28;19966;-65
2022/01/06 12:26:42;;;;;;;;;;;4.60;84.40;;;;;;5062735;28;19947;-65
2022/01/06 12:29:17;;;;;;;;;;;4.70;84.40;;;;;;5062544;28;20115;-64
2022/01/06 12:31:43;;;;;;;;;;;4.70;83.80;;;;;;5064642;28;19988;-64
2022/01/06 12:34:11;;;;;;;;;;;5.10;83.70;;;;;;5065696;28;19909;-65
2022/01/06 12:36:40;;;;;;;;;;;6.60;77.60;;;;;;5066683;28;19947;-65
2022/01/06 12:39:07;;;;;;;;;;;8.10;69.50;;;;;;5065891;28;19908;-64
2022/01/06 12:41:34;;;;;;;;;;;9.50;61.80;;;;;;5066080;28;19949;-65
2022/01/06 12:44:00;;;;;;;;;;;10.10;58.70;;;;;;5065903;28;20085;-64
2022/01/06 12:46:31;;;;;;;;;;;10.60;55.20;;;;;;5064615;28;20246;-65
2022/01/06 12:48:56;;;;;;;;;;;11.00;54.30;;;;;;5065247;28;19928;-65
2022/01/06 12:51:24;;;;;;;;;;;10.90;52.50;;;;;;5066270;28;20085;-65
2022/01/06 12:53:59;;;;;;;;;;;10.60;51.50;;;;;;5064129;28;19908;-65
2022/01/06 12:56:32;;;;;;;;;;;10.20;52.90;;;;;;5064790;28;20107;-63
2022/01/06 12:59:02;;;;;;;;;;;9.70;54.50;;;;;;5065772;28;20215;-65
2022/01/06 13:01:28;;;;;;;;;;;9.00;55.90;;;;;;5064389;28;19978;-65
2022/01/06 13:03:54;;;;;;;;;;;8.60;58.50;;;;;;5066179;28;20086;-65
2022/01/06 13:06:24;;;;;;;;;;;8.20;58.80;;;;;;5047631;28;19909;-65
2022/01/06 13:08:54;;;;;;;;;;;8.00;59.30;;;;;;5066140;28;20092;-65
2022/01/06 13:11:20;;;;;;;;;;;7.40;56.60;;;;;;5065667;28;19944;-64
2022/01/06 13:13:57;;;;;;;;;;;7.40;56.20;;;;;;5064986;28;19913;-65
2022/01/06 13:16:23;;;;;;;;;;;7.30;56.60;;;;;;5065512;28;19951;-64
2022/01/06 13:18:56;;;;;;;;;;;7.30;57.30;;;;;;5065859;28;19916;-64
2022/01/06 13:21:31;;;;;;;;;;;6.70;59.30;;;;;;5065242;28;19975;-65
2022/01/06 13:24:18;;;;;;;;;;;6.50;60.00;;;;;;5065041;28;19995;-64
2022/01/06 13:26:46;;;;;;;;;;;6.20;61.90;;;;;;5065474;28;19909;-65
2022/01/06 13:29:12;;;;;;;;;;;6.10;62.70;;;;;;5063825;28;19909;-65
2022/01/06 13:31:38;;;;;;;;;;;6.00;63.40;;;;;;5065582;28;19916;-64
2022/01/06 13:34:04;;;;;;;;;;;5.90;63.80;;;;;;5065312;28;19954;-65
2022/01/06 13:36:32;;;;;;;;;;;5.90;64.90;;;;;;5065090;28;19909;-64
2022/01/06 13:39:06;;;;;;;;;;;5.60;66.60;;;;;;5063477;28;19916;-65
2022/01/06 13:41:32;;;;;;;;;;;5.50;68.10;;;;;;5064126;28;19909;-64
2022/01/06 13:43:59;;;;;;;;;;;5.40;68.60;;;;;;5064721;28;20115;-64
2022/01/06 13:46:30;;;;;;;;;;;5.40;68.60;;;;;;5064890;28;19915;-65
2022/01/06 13:51:46;;;;;;;;;;;5.30;69.30;;;;;;5065153;28;19942;-65
2022/01/06 13:54:12;;;;;;;;;;;5.20;70.30;;;;;;5063427;28;20099;-64
2022/01/06 13:56:37;;;;;;;;;;;5.30;69.60;;;;;;5064722;28;19936;-64
2022/01/06 13:59:09;;;;;;;;;;;5.30;69.70;;;;;;5063338;28;19944;-70
2022/01/06 14:01:39;;;;;;;;;;;5.20;70.40;;;;;;5062726;28;19908;-70
2022/01/06 14:04:05;;;;;;;;;;;5.30;70.90;;;;;;5063818;28;19913;-70
2022/01/06 14:06:31;;;;;;;;;;;5.20;70.90;;;;;;5062084;28;19909;-70
2022/01/06 14:08:57;;;;;;;;;;;5.40;70.80;;;;;;5063902;28;19915;-70
2022/01/06 14:11:25;;;;;;;;;;;5.50;70.80;;;;;;5063535;28;19913;-70
2022/01/06 14:13:51;;;;;;;;;;;5.50;69.60;;;;;;5062945;28;19909;-69
2022/01/06 14:16:17;;;;;;;;;;;5.60;69.90;;;;;;5062215;28;20333;-70
2022/01/06 14:18:43;;;;;;;;;;;5.80;65.30;;;;;;5046054;28;20254;-70
2022/01/06 14:21:09;;;;;;;;;;;5.80;64.40;;;;;;5062883;28;19908;-70
2022/01/06 14:23:36;;;;;;;;;;;5.90;65.40;;;;;;5061239;28;19909;-69
2022/01/06 14:26:03;;;;;;;;;;;5.80;65.40;;;;;;5063068;28;19962;-69
2022/01/06 14:28:28;;;;;;;;;;;5.60;66.40;;;;;;5063164;28;19912;-69
2022/01/06 14:30:58;;;;;;;;;;;5.70;65.80;;;;;;5063311;28;19920;-70
2022/01/06 14:33:27;;;;;;;;;;;5.50;66.40;;;;;;5062474;28;19916;-71
2022/01/06 14:35:53;;;;;;;;;;;5.50;66.80;;;;;;5063893;28;19909;-71
2022/01/06 14:38:19;;;;;;;;;;;5.50;67.40;;;;;;5063044;28;19963;-65
2022/01/06 14:40:44;;;;;;;;;;;5.40;68.00;;;;;;5063110;28;19908;-64
2022/01/06 14:43:10;;;;;;;;;;;5.30;69.60;;;;;;5063999;28;19909;-64